Time;durP1;ratioP1;P1;durP2;ratioP2;P2;SDS_P1;SDS_P2;PMS_P1;PMS_P2;Temp;Humidity;BMP_temperature;BMP_pressure;BME280_temperature;BME280_humidity;BME280_pressure;Samples;Min_cycle;Max_cycle;Signal;HPM_P1;HPM_P2
2021/12/15 00:01:50;;;;;;;3.20;3.00;;;22.10;49.60;;;;;;4994309;28;20231;-75
2021/12/15 00:04:16;;;;;;;3.97;3.17;;;22.10;49.60;;;;;;5011546;28;20176;-75
2021/12/15 00:06:43;;;;;;;3.22;3.03;;;22.10;49.60;;;;;;4994426;28;20214;-74
2021/12/15 00:09:13;;;;;;;3.60;3.30;;;22.10;49.60;;;;;;4994002;28;20204;-75
2021/12/15 00:11:40;;;;;;;3.45;3.15;;;22.10;49.60;;;;;;5011827;28;20192;-73
2021/12/15 00:14:14;;;;;;;3.35;3.15;;;22.20;49.60;;;;;;4994202;28;20195;-73
2021/12/15 00:16:41;;;;;;;3.33;3.03;;;22.10;49.50;;;;;;4993967;28;20230;-73
2021/12/15 00:19:07;;;;;;;3.47;3.10;;;22.10;49.50;;;;;;4993491;28;20227;-74
2021/12/15 00:21:33;;;;;;;3.10;2.90;;;22.10;49.50;;;;;;4994074;28;20180;-74
2021/12/15 00:23:59;;;;;;;3.58;3.28;;;22.10;49.50;;;;;;4994145;28;20187;-74
2021/12/15 00:26:25;;;;;;;3.50;3.22;;;22.10;49.40;;;;;;4977706;28;20196;-74
2021/12/15 00:28:52;;;;;;;3.22;2.92;;;22.10;49.40;;;;;;4993743;28;20192;-74
2021/12/15 00:31:19;;;;;;;4.40;2.80;;;22.10;49.40;;;;;;4993720;28;20676;-74
2021/12/15 00:33:47;;;;;;;3.30;3.00;;;22.10;49.40;;;;;;4993959;28;20220;-75
2021/12/15 00:36:16;;;;;;;3.47;3.17;;;22.10;49.40;;;;;;4978079;28;20200;-74
2021/12/15 00:38:43;;;;;;;2.42;2.22;;;22.10;49.40;;;;;;4993385;28;20192;-75
2021/12/15 00:41:10;;;;;;;2.92;2.70;;;22.10;49.40;;;;;;4977700;28;20557;-74
2021/12/15 00:43:36;;;;;;;3.15;2.90;;;22.10;49.40;;;;;;4977683;28;20198;-74
2021/12/15 00:46:04;;;;;;;2.75;2.55;;;22.10;49.40;;;;;;4993667;28;20204;-73
2021/12/15 00:48:30;;;;;;;2.67;2.47;;;22.10;49.40;;;;;;4993342;28;20195;-73
2021/12/15 00:50:57;;;;;;;2.75;2.55;;;22.10;49.40;;;;;;4993808;28;20234;-74
2021/12/15 00:53:26;;;;;;;2.72;2.53;;;22.10;49.40;;;;;;5012697;28;20219;-74
2021/12/15 00:55:52;;;;;;;2.40;2.30;;;22.10;49.30;;;;;;4981221;28;20188;-74
2021/12/15 00:58:17;;;;;;;2.78;2.58;;;22.10;49.40;;;;;;4995891;28;20621;-74
2021/12/15 01:00:51;;;;;;;2.55;2.35;;;22.10;49.40;;;;;;4981387;28;20234;-73
2021/12/15 01:03:20;;;;;;;2.85;2.65;;;22.10;49.30;;;;;;4981362;28;20194;-73
2021/12/15 01:05:53;;;;;;;2.53;2.33;;;22.10;49.30;;;;;;4997153;28;20195;-74
2021/12/15 01:08:29;;;;;;;2.65;2.45;;;22.10;49.30;;;;;;4980625;28;20191;-73
2021/12/15 01:11:12;;;;;;;2.63;2.42;;;22.10;49.30;;;;;;4997143;28;20226;-74
2021/12/15 01:22:07;;;;;;;2.50;2.30;;;22.10;49.20;;;;;;4997165;28;20191;-74
2021/12/15 01:24:33;;;;;;;2.72;2.10;;;22.10;49.20;;;;;;4996938;28;20193;-74
2021/12/15 01:26:59;;;;;;;2.70;2.47;;;22.10;49.20;;;;;;4980582;28;20204;-74
2021/12/15 01:29:25;;;;;;;2.40;2.20;;;22.10;49.20;;;;;;4996835;28;20413;-74
2021/12/15 01:31:51;;;;;;;2.38;2.17;;;22.10;49.20;;;;;;4980520;28;20235;-74
2021/12/15 01:34:17;;;;;;;2.22;2.08;;;22.10;49.20;;;;;;4980314;28;20191;-74
2021/12/15 01:36:43;;;;;;;2.05;1.95;;;22.00;49.00;;;;;;4997027;28;20231;-74
2021/12/15 01:39:09;;;;;;;2.25;2.13;;;22.10;49.20;;;;;;4996203;28;20695;-74
2021/12/15 01:41:36;;;;;;;2.20;2.10;;;22.00;49.00;;;;;;4996688;28;20192;-74
2021/12/15 01:47:01;;;;;;;3.50;2.20;;;22.00;49.00;;;;;;4996230;28;20303;-75
2021/12/15 01:49:33;;;;;;;2.40;2.20;;;22.00;49.10;;;;;;4989296;28;20222;-75
2021/12/15 01:52:15;;;;;;;2.10;1.90;;;22.10;49.10;;;;;;4980228;28;20192;-74
2021/12/15 01:54:46;;;;;;;2.08;1.98;;;22.00;49.00;;;;;;4996321;28;20223;-74
2021/12/15 01:57:14;;;;;;;2.00;1.90;;;22.10;49.10;;;;;;4996394;28;20196;-74
2021/12/15 01:59:45;;;;;;;2.58;2.10;;;22.10;49.10;;;;;;4996007;28;20208;-74
2021/12/15 02:02:12;;;;;;;2.03;1.92;;;22.10;49.00;;;;;;5013688;28;20192;-74
2021/12/15 02:04:39;;;;;;;1.90;1.80;;;22.10;49.10;;;;;;4995715;28;20271;-73
2021/12/15 02:07:10;;;;;;;2.35;2.00;;;22.10;49.00;;;;;;4995424;28;20297;-74
2021/12/15 02:12:31;;;;;;;2.10;1.90;;;22.00;48.90;;;;;;4995984;28;20668;-74
2021/12/15 02:14:58;;;;;;;1.80;1.70;;;22.10;49.00;;;;;;4996064;28;20209;-73
2021/12/15 02:17:27;;;;;;;2.10;2.00;;;22.10;49.00;;;;;;4979402;28;20204;-71
2021/12/15 02:19:52;;;;;;;1.80;1.70;;;22.10;49.00;;;;;;4995761;28;20261;-73
2021/12/15 02:22:18;;;;;;;1.90;1.80;;;22.10;49.00;;;;;;4996012;28;20184;-73
2021/12/15 02:24:49;;;;;;;1.52;1.42;;;22.00;48.90;;;;;;4979658;28;20322;-73
2021/12/15 02:27:15;;;;;;;1.70;1.60;;;22.10;49.00;;;;;;4995718;28;20196;-73
2021/12/15 02:29:44;;;;;;;1.55;1.45;;;22.10;49.00;;;;;;4995277;28;20207;-73
2021/12/15 02:37:53;;;;;;;1.90;1.80;;;22.00;48.80;;;;;;4965579;28;20219;-73
2021/12/15 02:40:20;;;;;;;1.70;1.60;;;22.10;48.90;;;;;;4995385;28;20273;-74
2021/12/15 02:42:49;;;;;;;1.60;1.50;;;22.10;48.90;;;;;;4995521;28;20188;-73
2021/12/15 02:45:22;;;;;;;1.70;1.60;;;22.00;48.80;;;;;;4979202;28;20184;-74
2021/12/15 02:47:48;;;;;;;1.50;1.40;;;22.10;48.90;;;;;;4994826;28;20208;-74
2021/12/15 02:50:24;;;;;;;1.60;1.50;;;22.10;48.90;;;;;;4995036;28;20196;-74
2021/12/15 02:52:51;;;;;;;1.77;1.67;;;22.10;48.80;;;;;;4995354;28;20188;-73
2021/12/15 02:55:18;;;;;;;1.60;1.50;;;22.10;48.90;;;;;;4995473;28;20196;-74
2021/12/15 02:57:45;;;;;;;1.70;1.60;;;22.00;48.70;;;;;;4994730;28;20243;-74
2021/12/15 03:00:18;;;;;;;1.80;1.70;;;22.00;48.70;;;;;;4994736;28;20236;-73
2021/12/15 03:03:41;;;;;;;1.80;1.70;;;22.10;48.80;;;;;;5013471;23;20227;-66
2021/12/15 03:06:06;;;;;;;1.70;1.60;;;22.10;48.80;;;;;;5031544;28;20198;-66
2021/12/15 03:08:50;;;;;;;1.60;1.50;;;22.00;48.60;;;;;;5031864;28;20179;-66
2021/12/15 03:16:48;;;;;;;1.55;1.45;;;22.10;48.70;;;;;;5014403;28;20294;-66
2021/12/15 03:19:14;;;;;;;1.75;1.65;;;22.00;48.60;;;;;;5014860;28;20230;-66
2021/12/15 03:21:40;;;;;;;1.75;1.63;;;22.10;48.70;;;;;;5015130;28;20238;-66
2021/12/15 03:24:15;;;;;;;1.77;1.63;;;22.10;48.70;;;;;;5031589;28;20187;-66
2021/12/15 03:26:56;;;;;;;2.08;1.95;;;22.00;48.60;;;;;;5032699;28;20180;-65
2021/12/15 03:35:19;;;;;;;1.42;1.33;;;22.10;48.70;;;;;;5032650;28;20195;-66
2021/12/15 03:37:54;;;;;;;1.92;1.83;;;22.10;48.60;;;;;;5031051;28;20218;-66
2021/12/15 03:40:27;;;;;;;1.92;1.83;;;22.00;48.60;;;;;;5014765;28;20270;-66
2021/12/15 03:43:01;;;;;;;1.92;1.83;;;22.10;48.60;;;;;;5032389;28;20207;-66
2021/12/15 03:45:39;;;;;;;1.52;1.42;;;22.10;48.70;;;;;;5014845;28;20179;-66
2021/12/15 03:48:14;;;;;;;1.60;1.50;;;22.00;48.50;;;;;;5013320;28;20250;-66
2021/12/15 03:50:42;;;;;;;1.40;1.30;;;22.10;48.60;;;;;;5038118;28;20281;-66
2021/12/15 03:53:11;;;;;;;1.73;1.63;;;22.00;48.60;;;;;;5014797;28;20261;-66
2021/12/15 03:55:39;;;;;;;1.67;1.58;;;22.00;49.10;;;;;;4998277;28;20270;-66
2021/12/15 03:58:11;;;;;;;1.40;1.30;;;22.00;48.50;;;;;;5014650;28;20198;-66
2021/12/15 04:00:53;;;;;;;1.63;1.52;;;22.10;48.60;;;;;;5014711;28;20650;-66
2021/12/15 04:03:26;;;;;;;1.50;1.40;;;22.10;48.60;;;;;;5014822;28;20207;-66
2021/12/15 04:05:55;;;;;;;1.98;1.50;;;22.10;48.60;;;;;;5014982;28;20202;-66
2021/12/15 04:08:22;;;;;;;1.60;1.50;;;22.00;48.50;;;;;;5030833;28;20183;-66
2021/12/15 04:10:48;;;;;;;1.35;1.25;;;22.00;48.40;;;;;;5014523;28;20610;-66
2021/12/15 04:13:15;;;;;;;1.42;1.33;;;22.00;48.40;;;;;;5030902;28;20210;-66
2021/12/15 04:15:47;;;;;;;1.40;1.30;;;22.00;48.40;;;;;;5030844;28;20590;-66
2021/12/15 04:18:14;;;;;;;1.13;1.13;;;22.00;48.40;;;;;;5031932;28;20225;-66
2021/12/15 04:20:41;;;;;;;1.48;1.38;;;22.00;48.40;;;;;;4997823;28;20227;-66
2021/12/15 04:23:10;;;;;;;1.48;1.38;;;22.00;48.30;;;;;;5030717;28;20708;-66
2021/12/15 04:25:40;;;;;;;1.27;1.20;;;22.00;48.40;;;;;;5032210;28;20176;-66
2021/12/15 04:28:21;;;;;;;1.35;1.25;;;22.00;48.40;;;;;;5031887;28;20172;-66
2021/12/15 04:30:54;;;;;;;1.30;1.20;;;22.00;48.40;;;;;;5034740;28;20184;-66
2021/12/15 04:33:32;;;;;;;1.10;1.10;;;22.00;48.40;;;;;;5018146;28;20211;-66
2021/12/15 04:36:01;;;;;;;1.33;1.23;;;22.00;48.40;;;;;;5034695;28;20206;-66
2021/12/15 04:38:31;;;;;;;1.00;1.00;;;22.00;48.40;;;;;;5017880;28;20183;-66
2021/12/15 04:41:01;;;;;;;1.60;1.50;;;22.10;48.50;;;;;;5017979;28;20207;-66
2021/12/15 04:43:32;;;;;;;1.30;1.20;;;22.00;48.30;;;;;;5035776;28;20199;-66
2021/12/15 04:45:59;;;;;;;1.40;1.30;;;22.00;48.30;;;;;;5018135;28;20218;-66
2021/12/15 04:48:25;;;;;;;1.50;1.40;;;22.00;48.30;;;;;;5017779;28;20274;-66
2021/12/15 04:50:51;;;;;;;1.50;1.40;;;22.00;48.30;;;;;;5034728;28;20187;-66
2021/12/15 04:53:17;;;;;;;1.35;1.25;;;22.00;48.30;;;;;;5018047;28;20831;-66
2021/12/15 04:55:43;;;;;;;1.20;1.20;;;22.00;48.30;;;;;;5017729;28;20194;-66
2021/12/15 04:58:11;;;;;;;1.30;1.20;;;22.00;48.20;;;;;;5030303;28;20274;-66
2021/12/15 05:00:52;;;;;;;1.20;1.10;;;22.00;48.10;;;;;;5013301;28;20210;-66
2021/12/15 05:03:19;;;;;;;1.45;1.35;;;22.00;48.30;;;;;;5017302;28;20221;-66
2021/12/15 05:05:45;;;;;;;1.10;1.10;;;22.00;48.20;;;;;;5017178;28;20183;-66
2021/12/15 05:08:11;;;;;;;1.15;1.05;;;22.00;48.20;;;;;;5017438;28;20310;-66
2021/12/15 05:10:37;;;;;;;1.38;1.27;;;22.00;48.20;;;;;;5034345;28;20277;-66
2021/12/15 05:13:06;;;;;;;1.08;1.08;;;22.00;48.20;;;;;;5001138;28;20203;-66
2021/12/15 05:15:33;;;;;;;1.13;1.08;;;22.00;48.20;;;;;;5035184;28;20176;-66
2021/12/15 05:17:59;;;;;;;1.35;1.25;;;22.00;48.20;;;;;;5017634;28;20180;-66
2021/12/15 05:20:26;;;;;;;1.02;0.98;;;22.00;48.20;;;;;;5035223;28;20234;-66
2021/12/15 05:22:54;;;;;;;1.38;1.27;;;22.00;48.10;;;;;;5017520;28;20278;-66
2021/12/15 05:25:21;;;;;;;1.58;1.48;;;22.00;48.10;;;;;;5017340;28;20186;-65
2021/12/15 05:27:47;;;;;;;1.15;1.15;;;22.00;48.20;;;;;;5017097;28;20218;-66
2021/12/15 05:30:17;;;;;;;1.52;1.42;;;22.00;48.10;;;;;;5017127;28;20569;-65
2021/12/15 05:32:44;;;;;;;1.50;1.40;;;22.00;48.10;;;;;;5017224;28;20282;-65
2021/12/15 05:35:15;;;;;;;1.27;1.25;;;22.00;48.10;;;;;;5017230;28;20274;-66
2021/12/15 05:37:42;;;;;;;1.30;1.20;;;22.00;48.10;;;;;;5034590;28;20180;-66
2021/12/15 05:40:09;;;;;;;0.98;0.98;;;22.00;48.10;;;;;;5032471;28;20297;-66
2021/12/15 05:42:35;;;;;;;1.13;1.10;;;22.00;48.10;;;;;;5034870;28;20207;-66
2021/12/15 05:45:01;;;;;;;0.95;0.95;;;22.00;48.10;;;;;;5034732;28;20194;-66
2021/12/15 05:47:27;;;;;;;1.15;1.13;;;22.00;48.10;;;;;;5000615;28;20214;-66
2021/12/15 05:49:55;;;;;;;1.38;1.27;;;22.00;48.10;;;;;;5017106;28;20187;-66
2021/12/15 05:52:25;;;;;;;0.93;0.93;;;22.00;48.10;;;;;;5000337;28;20761;-65
2021/12/15 05:54:51;;;;;;;1.35;1.25;;;22.00;48.10;;;;;;5034452;28;20179;-66
2021/12/15 05:57:17;;;;;;;1.00;1.00;;;22.00;48.10;;;;;;5016645;28;20233;-65
2021/12/15 05:59:42;;;;;;;1.17;1.17;;;22.00;48.10;;;;;;5016830;28;20700;-66
2021/12/15 06:02:09;;;;;;;1.02;1.02;;;22.00;48.10;;;;;;5016632;28;20272;-66
2021/12/15 06:04:35;;;;;;;1.20;1.10;;;22.00;48.10;;;;;;5016824;28;20662;-66
2021/12/15 06:07:01;;;;;;;2.35;1.33;;;22.00;48.10;;;;;;5016732;28;20213;-65
2021/12/15 06:09:27;;;;;;;1.10;1.10;;;22.00;48.10;;;;;;5000112;28;20171;-66
2021/12/15 06:11:53;;;;;;;1.10;1.10;;;22.00;48.10;;;;;;5033111;28;20611;-66
2021/12/15 06:14:26;;;;;;;1.40;1.30;;;22.00;48.20;;;;;;5034031;28;20333;-66
2021/12/15 06:16:55;;;;;;;1.77;1.67;;;22.00;48.10;;;;;;5016371;28;20281;-66
2021/12/15 06:19:21;;;;;;;1.63;1.52;;;22.00;48.10;;;;;;5033639;28;20207;-66
2021/12/15 06:21:47;;;;;;;1.70;1.60;;;22.00;48.10;;;;;;5032686;28;20210;-66
2021/12/15 06:24:13;;;;;;;1.98;1.75;;;22.00;48.10;;;;;;5016321;28;20183;-66
2021/12/15 06:26:39;;;;;;;1.60;1.50;;;22.00;48.10;;;;;;5016162;28;20187;-66
2021/12/15 06:29:06;;;;;;;1.20;1.20;;;22.00;48.10;;;;;;5016028;28;20270;-66
2021/12/15 06:31:31;;;;;;;1.35;1.27;;;22.00;48.10;;;;;;5033652;28;20183;-66
2021/12/15 06:33:57;;;;;;;1.40;1.30;;;22.00;48.10;;;;;;5016084;28;20222;-65
2021/12/15 06:36:23;;;;;;;1.00;1.00;;;22.00;48.10;;;;;;5016189;28;20179;-66
2021/12/15 06:38:53;;;;;;;1.17;1.10;;;22.00;48.10;;;;;;5015878;28;20179;-66
2021/12/15 06:41:20;;;;;;;1.25;1.15;;;22.00;48.10;;;;;;5033651;28;20241;-65
2021/12/15 06:43:55;;;;;;;1.40;1.30;;;22.00;48.10;;;;;;5016086;28;20565;-66
2021/12/15 07:00:13;;;;;;;1.05;1.05;;;22.00;48.10;;;;;;5032987;28;20204;-66
2021/12/15 07:02:40;;;;;;;1.60;1.50;;;22.00;48.10;;;;;;5015558;28;20207;-65
2021/12/15 07:05:08;;;;;;;1.58;1.48;;;22.00;48.10;;;;;;5033022;28;20172;-65
2021/12/15 07:07:37;;;;;;;1.80;1.38;;;22.00;48.10;;;;;;5015109;28;20232;-65
2021/12/15 07:10:06;;;;;;;1.40;1.30;;;22.00;48.10;;;;;;4998976;28;20179;-66
2021/12/15 07:12:31;;;;;;;1.70;1.60;;;22.00;48.10;;;;;;5015354;28;20206;-66
2021/12/15 07:14:57;;;;;;;1.60;1.50;;;22.00;48.10;;;;;;5015326;28;20290;-66
2021/12/15 07:17:25;;;;;;;1.90;1.80;;;22.00;48.10;;;;;;5015426;28;20265;-66
2021/12/15 07:22:43;;;;;;;1.77;1.67;;;22.00;48.10;;;;;;5015323;28;20202;-65
2021/12/15 07:25:14;;;;;;;1.50;1.40;;;22.00;48.70;;;;;;4998784;28;20186;-66
2021/12/15 07:27:41;;;;;;;1.50;1.40;;;22.00;48.10;;;;;;5014649;28;20229;-66
2021/12/15 07:30:10;;;;;;;1.58;1.48;;;21.90;48.00;;;;;;5015180;28;20183;-67
2021/12/15 07:32:37;;;;;;;1.60;1.50;;;22.00;48.10;;;;;;5038636;28;20207;-66
2021/12/15 07:35:06;;;;;;;1.58;1.48;;;21.90;48.00;;;;;;5030960;28;20672;-66
2021/12/15 07:37:34;;;;;;;1.63;1.52;;;22.00;48.10;;;;;;5051218;28;20228;-66
2021/12/15 07:40:06;;;;;;;1.70;1.58;;;22.00;48.10;;;;;;5052637;28;20297;-66
2021/12/15 07:42:42;;;;;;;1.60;1.50;;;22.00;48.10;;;;;;5034834;28;20708;-66
2021/12/15 07:45:10;;;;;;;1.77;1.50;;;22.00;48.10;;;;;;5051517;28;20280;-66
2021/12/15 07:47:37;;;;;;;1.70;1.60;;;22.00;48.10;;;;;;5034592;28;20186;-66
2021/12/15 07:50:06;;;;;;;1.60;1.50;;;22.00;48.10;;;;;;5051128;28;20218;-66
2021/12/15 07:52:32;;;;;;;1.92;1.83;;;22.00;48.00;;;;;;5034399;28;20222;-66
2021/12/15 07:54:57;;;;;;;1.95;1.80;;;22.00;48.00;;;;;;5034791;28;20221;-66
2021/12/15 07:57:27;;;;;;;3.70;3.40;;;22.00;48.00;;;;;;5034246;28;20186;-66
2021/12/15 07:59:56;;;;;;;4.18;3.78;;;21.90;48.00;;;;;;5052321;28;20214;-66
2021/12/15 08:02:22;;;;;;;3.08;2.78;;;22.00;47.90;;;;;;5034054;28;20206;-66
2021/12/15 08:04:48;;;;;;;3.00;2.67;;;22.00;48.00;;;;;;5018033;28;20178;-66
2021/12/15 08:07:15;;;;;;;3.03;2.67;;;22.00;48.00;;;;;;5050836;28;20221;-66
2021/12/15 08:09:42;;;;;;;2.50;2.30;;;21.90;47.90;;;;;;5047924;28;20242;-66
2021/12/15 08:12:08;;;;;;;2.00;1.90;;;22.00;48.00;;;;;;5013042;28;20230;-66
2021/12/15 08:14:34;;;;;;;2.08;1.88;;;22.00;48.00;;;;;;5031308;28;20187;-66
2021/12/15 08:17:00;;;;;;;2.50;2.30;;;22.00;48.00;;;;;;5031362;28;20237;-66
2021/12/15 08:19:26;;;;;;;2.20;2.00;;;22.00;48.00;;;;;;5030220;28;20211;-66
2021/12/15 08:21:52;;;;;;;2.50;2.30;;;22.00;47.90;;;;;;5008205;28;20208;-67
2021/12/15 08:24:18;;;;;;;3.50;2.20;;;21.90;47.90;;;;;;4994658;28;20210;-66
2021/12/15 08:26:44;;;;;;;2.40;2.20;;;22.00;48.00;;;;;;4994694;28;20639;-67
2021/12/15 08:29:11;;;;;;;2.17;1.98;;;22.00;47.90;;;;;;5006533;28;20190;-66
2021/12/15 08:31:37;;;;;;;1.98;1.70;;;22.00;48.00;;;;;;5030549;28;20199;-66
2021/12/15 08:34:03;;;;;;;2.15;2.00;;;22.00;47.90;;;;;;5014320;28;20187;-67
2021/12/15 08:36:29;;;;;;;2.40;1.90;;;22.00;47.90;;;;;;5017328;28;20576;-66
2021/12/15 08:38:55;;;;;;;2.10;2.00;;;22.00;47.90;;;;;;5041764;28;20186;-66
2021/12/15 08:41:29;;;;;;;2.47;2.28;;;22.00;47.90;;;;;;5050229;28;20214;-66
2021/12/15 08:43:56;;;;;;;2.40;2.20;;;22.00;47.90;;;;;;5026162;28;20219;-66
2021/12/15 08:46:31;;;;;;;2.50;2.30;;;21.90;47.80;;;;;;5015053;28;20175;-68
2021/12/15 08:48:59;;;;;;;3.00;2.80;;;22.00;47.90;;;;;;5017568;28;20224;-66
2021/12/15 08:51:28;;;;;;;2.85;2.65;;;21.90;47.70;;;;;;5050382;28;20232;-66
2021/12/15 08:54:00;;;;;;;2.45;2.25;;;21.90;47.80;;;;;;4996246;28;20263;-66
2021/12/15 08:56:26;;;;;;;2.00;1.90;;;21.90;47.70;;;;;;5030723;28;20263;-66
2021/12/15 08:58:53;;;;;;;2.63;2.03;;;22.00;47.90;;;;;;5030936;28;20190;-66
2021/12/15 09:01:21;;;;;;;2.00;1.85;;;22.00;47.90;;;;;;5030668;28;20687;-66
2021/12/15 09:03:47;;;;;;;2.13;1.92;;;22.00;47.90;;;;;;5037457;23;20233;-73
2021/12/15 09:06:13;;;;;;;1.80;1.70;;;22.00;47.90;;;;;;5034083;28;20224;-72
2021/12/15 09:08:42;;;;;;;2.05;1.85;;;22.00;47.90;;;;;;5034297;28;20277;-71
2021/12/15 09:11:14;;;;;;;2.38;2.17;;;21.90;47.80;;;;;;4998235;28;20283;-72
2021/12/15 09:13:44;;;;;;;2.30;2.10;;;22.00;47.90;;;;;;5031599;28;20673;-73
2021/12/15 09:16:11;;;;;;;1.80;1.70;;;22.00;47.90;;;;;;5000297;28;20187;-73
2021/12/15 09:18:41;;;;;;;2.08;1.98;;;21.90;47.80;;;;;;5017211;28;20198;-73
2021/12/15 09:21:09;;;;;;;1.95;1.85;;;22.00;47.90;;;;;;5017576;28;20678;-73
2021/12/15 09:23:36;;;;;;;2.10;2.00;;;21.90;47.70;;;;;;5023267;28;20563;-73
2021/12/15 09:26:04;;;;;;;2.22;2.13;;;21.90;47.80;;;;;;5017644;28;20604;-73
2021/12/15 09:28:32;;;;;;;2.50;2.30;;;22.00;47.80;;;;;;5021990;28;20177;-71
2021/12/15 09:30:59;;;;;;;2.40;2.20;;;22.00;47.90;;;;;;5054848;28;20183;-72
2021/12/15 09:33:48;;;;;;;2.67;2.42;;;22.00;47.90;;;;;;5036880;28;20203;-72
2021/12/15 09:36:17;;;;;;;2.00;1.90;;;22.00;48.50;;;;;;5020513;28;20182;-73
2021/12/15 09:38:50;;;;;;;1.90;1.80;;;21.90;48.40;;;;;;5020285;28;20190;-72
2021/12/15 09:41:20;;;;;;;1.70;1.60;;;22.00;47.90;;;;;;5041086;28;20202;-72
2021/12/15 09:43:49;;;;;;;1.95;1.83;;;22.00;47.90;;;;;;5053568;28;20212;-71
2021/12/15 09:46:41;;;;;;;1.92;1.83;;;21.90;47.80;;;;;;5054410;28;20201;-71
2021/12/15 10:03:11;;;;;;;2.15;1.90;;;21.90;47.80;;;;;;5016583;28;20226;-71
2021/12/15 10:05:52;;;;;;;2.20;2.00;;;21.90;47.80;;;;;;5000180;28;20219;-71
2021/12/15 10:19:40;;;;;;;2.50;2.30;;;22.00;47.90;;;;;;5016293;28;20250;-71
2021/12/15 10:22:13;;;;;;;2.38;2.20;;;22.00;47.90;;;;;;5016536;28;20225;-71
2021/12/15 10:25:06;;;;;;;2.72;2.53;;;22.00;47.80;;;;;;5033794;28;20376;-72
2021/12/15 10:27:48;;;;;;;2.75;2.55;;;22.00;47.80;;;;;;4999253;28;20270;-72
2021/12/15 10:30:35;;;;;;;2.47;2.28;;;21.90;47.80;;;;;;5016818;28;20218;-73
2021/12/15 10:33:29;;;;;;;2.88;2.65;;;22.00;47.90;;;;;;5000006;28;20261;-72
2021/12/15 10:36:10;;;;;;;3.40;3.10;;;22.00;47.80;;;;;;5015858;28;20205;-72
2021/12/15 10:38:51;;;;;;;3.75;3.45;;;22.00;47.80;;;;;;5033551;28;20171;-72
2021/12/15 10:41:29;;;;;;;3.65;3.28;;;21.90;47.80;;;;;;5033607;28;20250;-72
2021/12/15 10:44:12;;;;;;;3.28;2.97;;;21.90;47.70;;;;;;5016011;28;20204;-73
2021/12/15 10:46:51;;;;;;;3.50;3.20;;;21.90;47.80;;;;;;5032435;28;20172;-71
2021/12/15 10:49:29;;;;;;;3.10;2.90;;;21.90;47.80;;;;;;5033245;28;20163;-72
2021/12/15 10:52:01;;;;;;;3.22;3.00;;;22.00;47.80;;;;;;5015712;28;20167;-72
2021/12/15 10:54:44;;;;;;;3.78;3.47;;;22.00;47.80;;;;;;5015682;28;20167;-72
2021/12/15 10:57:18;;;;;;;4.60;4.20;;;22.00;47.80;;;;;;4999005;28;20172;-71
2021/12/15 10:59:51;;;;;;;4.53;4.13;;;22.00;47.80;;;;;;5019423;28;20209;-72
2021/12/15 11:02:25;;;;;;;4.95;4.55;;;21.90;47.70;;;;;;5035449;28;20211;-72
2021/12/15 11:05:14;;;;;;;4.20;3.90;;;22.00;47.70;;;;;;5053038;28;20176;-72
2021/12/15 11:07:55;;;;;;;4.38;3.97;;;21.90;47.70;;;;;;5018810;28;20181;-72
2021/12/15 11:10:28;;;;;;;4.90;4.50;;;21.90;47.80;;;;;;5031988;28;20666;-73
2021/12/15 11:13:10;;;;;;;4.07;3.78;;;21.90;47.80;;;;;;5015616;28;20210;-72
2021/12/15 11:15:51;;;;;;;5.32;4.93;;;21.90;47.70;;;;;;5015503;28;20215;-72
2021/12/15 11:18:30;;;;;;;5.47;5.03;;;21.90;47.60;;;;;;5031390;28;20210;-73
2021/12/15 11:21:07;;;;;;;6.00;5.50;;;22.00;47.80;;;;;;4998851;28;20211;-72
2021/12/15 11:23:35;;;;;;;5.40;4.90;;;21.90;47.60;;;;;;5031754;28;20207;-72
2021/12/15 11:26:11;;;;;;;4.90;4.50;;;21.90;47.60;;;;;;4998833;28;20171;-72
2021/12/15 11:28:48;;;;;;;5.03;4.63;;;21.90;47.70;;;;;;5015239;28;20238;-72
2021/12/15 11:31:29;;;;;;;8.25;5.20;;;22.00;47.80;;;;;;4998930;28;20183;-73
2021/12/15 11:34:01;;;;;;;6.00;5.50;;;21.90;47.70;;;;;;5014980;28;20593;-72
2021/12/15 11:36:44;;;;;;;5.85;5.35;;;22.00;47.80;;;;;;5031488;28;20187;-71
2021/12/15 11:39:20;;;;;;;6.55;5.95;;;22.00;47.80;;;;;;4997688;28;20222;-71
2021/12/15 11:41:53;;;;;;;6.78;6.18;;;22.00;47.70;;;;;;5014986;28;20175;-71
2021/12/15 11:44:27;;;;;;;7.28;6.68;;;21.90;47.60;;;;;;5032573;28;20635;-71
2021/12/15 11:47:01;;;;;;;6.82;6.22;;;21.90;47.70;;;;;;5031182;28;20167;-71
2021/12/15 11:49:34;;;;;;;6.13;5.63;;;21.90;47.60;;;;;;4998271;28;20172;-72
2021/12/15 11:52:12;;;;;;;6.22;5.70;;;22.00;47.70;;;;;;5014859;28;20638;-73
2021/12/15 11:54:50;;;;;;;6.47;5.97;;;21.90;47.70;;;;;;4998427;28;20197;-71
2021/12/15 11:57:23;;;;;;;6.40;5.90;;;22.00;47.80;;;;;;5059855;28;20206;-72
2021/12/15 11:59:53;;;;;;;6.47;5.88;;;22.00;47.80;;;;;;5048542;28;20203;-72
2021/12/15 12:02:31;;;;;;;7.20;6.57;;;22.00;47.70;;;;;;5031942;28;20217;-72
2021/12/15 12:05:01;;;;;;;7.03;6.43;;;21.90;47.60;;;;;;5046978;28;20668;-72
2021/12/15 12:07:42;;;;;;;7.07;6.47;;;22.00;47.80;;;;;;5036600;28;20182;-72
2021/12/15 12:10:48;;;;;;;7.30;6.70;;;22.00;47.60;;;;;;5045373;28;20175;-72
2021/12/15 12:13:29;;;;;;;6.95;5.80;;;21.90;47.60;;;;;;5034086;28;20272;-72
2021/12/15 12:16:00;;;;;;;6.18;5.68;;;21.90;47.60;;;;;;5034330;28;20257;-72
2021/12/15 12:18:28;;;;;;;6.78;6.18;;;22.00;47.70;;;;;;5034048;28;20236;-72
2021/12/15 12:21:03;;;;;;;7.22;6.53;;;22.00;47.70;;;;;;5014435;28;20225;-72
2021/12/15 12:23:32;;;;;;;6.88;6.28;;;22.00;47.60;;;;;;5014354;28;20206;-72
2021/12/15 12:26:04;;;;;;;8.02;7.22;;;22.00;47.60;;;;;;5032071;28;20562;-72
2021/12/15 12:28:40;;;;;;;6.75;6.15;;;21.90;47.60;;;;;;5026159;28;20186;-72
2021/12/15 12:31:15;;;;;;;6.22;5.72;;;21.90;47.60;;;;;;5034206;28;20237;-72
2021/12/15 12:33:41;;;;;;;6.70;6.10;;;21.90;47.60;;;;;;5034014;28;20259;-72
2021/12/15 12:36:25;;;;;;;6.88;6.35;;;21.90;47.60;;;;;;5034064;28;20186;-72
2021/12/15 12:38:56;;;;;;;6.43;5.82;;;21.90;47.70;;;;;;5017471;28;20186;-72
2021/12/15 12:41:27;;;;;;;5.93;5.32;;;22.00;47.80;;;;;;5030624;28;20219;-72
2021/12/15 12:43:57;;;;;;;6.95;5.90;;;22.00;47.70;;;;;;5014273;28;20206;-72
2021/12/15 12:47:00;;;;;;;6.78;6.18;;;21.90;47.60;;;;;;5015799;28;20199;-72
2021/12/15 13:01:07;;;;;;;5.90;5.40;;;21.90;47.60;;;;;;5037371;28;20225;-72
2021/12/15 13:03:44;;;;;;;5.88;5.25;;;21.90;47.60;;;;;;5037238;28;20693;-72
2021/12/15 13:06:15;;;;;;;6.00;5.47;;;21.90;47.60;;;;;;5031756;28;20187;-72
2021/12/15 13:08:54;;;;;;;6.43;5.75;;;21.90;47.50;;;;;;5033161;28;20187;-72
2021/12/15 13:11:20;;;;;;;5.82;5.32;;;21.90;47.60;;;;;;5017026;28;20193;-73
2021/12/15 13:14:03;;;;;;;5.32;4.82;;;21.90;47.60;;;;;;5001064;28;20207;-73
2021/12/15 13:16:54;;;;;;;5.53;5.03;;;21.90;47.60;;;;;;5000943;28;20222;-73
2021/12/15 13:19:28;;;;;;;5.38;4.88;;;21.90;47.60;;;;;;5016485;28;20195;-72
2021/12/15 13:31:11;;;;;;;5.03;4.63;;;21.90;47.60;;;;;;4953917;29;20826;-72
2021/12/15 13:33:42;;;;;;;4.70;4.30;;;21.90;47.50;;;;;;4996405;28;20253;-72
2021/12/15 13:36:13;;;;;;;5.07;4.53;;;21.90;47.50;;;;;;5016669;28;20233;-72
2021/12/15 13:38:54;;;;;;;5.00;4.60;;;21.90;47.50;;;;;;5016461;28;20223;-72
2021/12/15 13:44:43;;;;;;;4.68;4.28;;;21.90;47.50;;;;;;5033036;28;20207;-72
2021/12/15 13:47:09;;;;;;;6.43;4.68;;;21.90;47.60;;;;;;5016613;28;20213;-72
2021/12/15 13:49:59;;;;;;;4.80;4.40;;;21.90;47.50;;;;;;4999891;28;20651;-72
2021/12/15 13:52:37;;;;;;;5.32;4.82;;;21.90;47.50;;;;;;5016581;28;20299;-71
2021/12/15 13:55:22;;;;;;;5.65;4.28;;;21.90;47.60;;;;;;5034179;28;20179;-71
2021/12/15 13:57:58;;;;;;;4.53;4.13;;;21.90;47.50;;;;;;5016109;28;20197;-72
2021/12/15 14:00:45;;;;;;;4.97;4.50;;;21.90;47.50;;;;;;5015546;28;20261;-71
2021/12/15 14:03:18;;;;;;;4.63;4.22;;;21.90;47.60;;;;;;5032903;28;20277;-72
2021/12/15 14:06:05;;;;;;;4.85;4.35;;;21.90;47.60;;;;;;5034320;28;20186;-71
2021/12/15 14:08:56;;;;;;;3.90;3.60;;;21.90;47.50;;;;;;5035902;28;20193;-71
2021/12/15 14:11:33;;;;;;;4.15;3.78;;;21.90;47.50;;;;;;5035999;28;20186;-70
2021/12/15 14:14:08;;;;;;;4.40;4.00;;;21.90;47.50;;;;;;5019418;28;20206;-72
2021/12/15 14:16:33;;;;;;;4.47;4.07;;;21.90;47.50;;;;;;5019401;28;20194;-72
2021/12/15 14:19:05;;;;;;;3.92;3.63;;;21.90;47.60;;;;;;5052211;28;20194;-72
2021/12/15 14:21:32;;;;;;;4.15;3.75;;;21.90;47.50;;;;;;5019411;28;20313;-72
2021/12/15 14:23:59;;;;;;;4.07;3.78;;;21.90;47.60;;;;;;5019031;28;20213;-72
2021/12/15 14:26:31;;;;;;;4.57;4.18;;;21.90;47.60;;;;;;5035586;28;20578;-72
2021/12/15 14:29:07;;;;;;;4.32;3.92;;;21.90;47.60;;;;;;5018895;28;20179;-72
2021/12/15 14:31:39;;;;;;;4.40;4.00;;;21.90;47.50;;;;;;5035608;28;20182;-72
2021/12/15 14:34:29;;;;;;;4.63;4.07;;;21.90;47.60;;;;;;5018841;28;20202;-71
2021/12/15 14:37:05;;;;;;;3.90;3.60;;;21.90;47.60;;;;;;5035744;28;20191;-72
2021/12/15 14:39:36;;;;;;;4.10;3.70;;;21.90;47.50;;;;;;5035081;28;20215;-72
2021/12/15 14:42:15;;;;;;;4.13;3.72;;;21.90;47.50;;;;;;5018852;28;20602;-71
2021/12/15 14:44:46;;;;;;;3.90;3.60;;;21.90;47.50;;;;;;5018453;28;20669;-72
2021/12/15 14:47:24;;;;;;;3.85;3.55;;;21.90;47.50;;;;;;5018586;28;20186;-72